This is the latest recevied weather packets stored in our database for station/object KB2EAR-13. If no packets are shown the sender has not sent any weather packets the latest 10 day(s).
| Time | Temp. | Humidity | Pressure | Rain* | Wind** | Luminosity | Snow |
|---|---|---|---|---|---|---|---|
| 1777838717 | 14.44° C | 35% | 1012.2 hPa | 0 mm | - | - | - |
| 1777838417 | 14.44° C | 35% | 1012.1 hPa | 0 mm | - | - | - |
| 1777838250 | 14.44° C | 34% | 1012.2 hPa | 0 mm | - | - | - |
| 1777838117 | 14.44° C | 34% | 1012.2 hPa | 0 mm | - | - | - |
| 1777837938 | 14.44° C | 34% | 1012.3 hPa | 0 mm | - | - | - |
| 1777837817 | 14.44° C | 34% | 1012.3 hPa | 0 mm | - | - | - |
| 1777837517 | 14.44° C | 33% | 1012.3 hPa | 0 mm | - | - | - |
| 1777837218 | 14.44° C | 35% | 1012.3 hPa | 0 mm | - | - | - |
| 1777836918 | 14.44° C | 33% | 1012.3 hPa | 0 mm | - | - | - |
| 1777836617 | 14.44° C | 34% | 1012.3 hPa | 0 mm | - | - | - |
| 1777836317 | 14.44° C | 34% | 1012.2 hPa | 0 mm | - | - | - |
| 1777836017 | 14.44° C | 34% | 1012.6 hPa | 0 mm | - | - | - |
| 1777835718 | 13.89° C | 37% | 1012.5 hPa | 0 mm | - | - | - |
| 1777835417 | 13.89° C | 36% | 1012.5 hPa | 0 mm | - | - | - |
| 1777835117 | 14.44° C | 35% | 1012.4 hPa | 0 mm | - | - | - |
| 1777834817 | 13.89° C | 36% | 1012.6 hPa | 0 mm | - | - | - |
| 1777834517 | 13.89° C | 38% | 1012.6 hPa | 0 mm | - | - | - |
| 1777834218 | 13.33° C | 38% | 1012.6 hPa | 0 mm | - | - | - |
| 1777833917 | 13.89° C | 36% | 1012.8 hPa | 0 mm | - | - | - |
| 1777833617 | 13.89° C | 37% | 1012.9 hPa | 0 mm | - | - | - |
| 1777833317 | 13.89° C | 37% | 1012.9 hPa | 0 mm | - | - | - |
| 1777833017 | 13.33° C | 39% | 1013 hPa | 0 mm | - | - | - |
| 1777832717 | 12.78° C | 39% | 1013.1 hPa | 0 mm | - | - | - |
| 1777832418 | 12.78° C | 38% | 1013.1 hPa | 0 mm | - | - | - |
| 1777832117 | 12.78° C | 39% | 1013.2 hPa | 0 mm | - | - | - |
* Rain latest hour (hover to see other rain measurements)
** Current wind speed in m/s (hover to see current wind gust speed)